Ferndale, WA (98248)

8:17 AM PST on November 27, 2014 (GMT -0800)
The Old Jeffcott Place | Change Station
CLOSE
Current Station
Personal Weather Station
Location: Ferndale, WA
Elevation: 106 ft
Nearby Weather Stations
Active Advisory: Areal Flood Watch, Special Statement Active Notice: Record Report

Elev 106 ft 48.86 °N, 122.59 °W | Updated 6 seconds ago

Mostly Cloudy
Mostly Cloudy
51.7 °F
Feels Like 51.7 °F
N
10.9
Wind Variable Wind from SSE
Gusts 26.9 mph

Today
High -- | Low -- °F
--% Chance of Precip.
Yesterday
High -- | Low -- °F
Precip. -- in
7:37 AM 4:18 PM
Waxing Crescent, 30% visible
Pressure 29.79 in
Visibility 6.0 miles
Clouds Overcast 1500 ft
Dew Point 50 °F
Humidity 95%
Rainfall 0.25 in
Snow Depth Not available.
UV 0 out of 12
Pollen .10 out of 12
Air Quality Not available.
Flu Activity Not available.
METAR KBLI 271553Z 16009KT 6SM -RA BR OVC015 12/09 A2977 RMK AO2 RAB13 SLP087 P0001 T01170094

More Conditions Fewer Conditions

Pressure 29.79 in
Visibility 6.0 miles
Clouds Overcast 1500 ft
Dew Point 50 °F
Humidity 95%
Rainfall 0.25 in
Snow Depth Not available.
UV 0 out of 12
Pollen .10 out of 12
Air Quality Not available.
Flu Activity Not available.
METAR KBLI 271553Z 16009KT 6SM -RA BR OVC015 12/09 A2977 RMK AO2 RAB13 SLP087 P0001 T01170094

More Conditions Fewer Conditions

10-Day Weather Forecast

Almanac

Astronomy

Nov. 27, 2014 Rise Set
Actual Time
Civil Twilight
Nautical Twilight
Astronomical Twilight
Moon
Length of Visible Light
Length of Day
Tomorrow will be .
, % of the Moon is Illuminated

Today's Extremes

State Highs State Lows

Community

WunderPhotos

Upload Photos

1,774,031 photos uploaded!

WunderBlogs® & News

Nearby

Air Quality

  Air Quality AQ Index Pollutant
Not available.

Snow Depth

Station Depth Elevation

Earthquake Activity

City Distance Mag. Time & Date
Minimum magnitude displayed is 2.5.

Coastal Water Temperatures

Place Temperature

Nearby Weather Stations